createdAt,value
2016-10-06T00:00:05.816Z,9.75
2016-10-06T00:00:30.096Z,9.79
2016-10-06T00:00:51.812Z,9.83
2016-10-06T00:01:13.535Z,9.88
2016-10-06T00:01:35.249Z,9.99
2016-10-06T00:01:56.960Z,10.01
2016-10-06T00:02:18.683Z,10.01
2016-10-06T00:02:40.397Z,9.94
2016-10-06T00:03:02.111Z,9.76
2016-10-06T00:03:23.823Z,9.71
2016-10-06T00:03:45.553Z,9.69
2016-10-06T00:04:07.265Z,9.62
2016-10-06T00:04:28.979Z,9.51
2016-10-06T00:04:50.698Z,9.47
2016-10-06T00:05:12.405Z,9.38
2016-10-06T00:05:38.904Z,9.27
2016-10-06T00:06:00.638Z,9.29
2016-10-06T00:06:22.352Z,9.36
2016-10-06T00:06:44.070Z,9.38
2016-10-06T00:07:05.803Z,9.48
2016-10-06T00:07:54.016Z,9.54
2016-10-06T00:08:15.732Z,9.44
2016-10-06T00:08:37.440Z,9.35
2016-10-06T00:08:59.149Z,9.29
2016-10-06T00:09:20.863Z,9.29
2016-10-06T00:09:42.582Z,9.28
2016-10-06T00:10:04.310Z,9.28
2016-10-06T00:10:26.027Z,9.36
2016-10-06T00:10:47.740Z,9.43
2016-10-06T00:11:09.448Z,9.57
2016-10-06T00:11:31.165Z,9.70
2016-10-06T00:11:52.875Z,9.61
2016-10-06T00:12:19.364Z,9.50
2016-10-06T00:12:41.083Z,9.55
2016-10-06T00:13:07.585Z,9.45
2016-10-06T00:13:29.296Z,9.44
2016-10-06T00:13:51.019Z,9.48
2016-10-06T00:14:12.727Z,9.52
2016-10-06T00:14:35.442Z,9.50
2016-10-06T00:14:57.160Z,9.55
2016-10-06T00:15:18.874Z,9.43
2016-10-06T00:15:40.584Z,9.37
2016-10-06T00:16:02.309Z,9.34
2016-10-06T00:16:24.026Z,9.36
2016-10-06T00:16:45.743Z,9.29
2016-10-06T00:17:07.461Z,9.28
2016-10-06T00:17:29.180Z,9.36
2016-10-06T00:17:50.900Z,9.30
2016-10-06T00:18:12.626Z,9.22
2016-10-06T00:18:34.340Z,9.14
2016-10-06T00:18:56.066Z,9.10
2016-10-06T00:19:17.788Z,9.14
2016-10-06T00:19:39.504Z,9.16
2016-10-06T00:20:27.709Z,9.22
2016-10-06T00:20:49.417Z,9.32
2016-10-06T00:21:11.156Z,9.37
2016-10-06T00:21:32.877Z,9.46
2016-10-06T00:21:54.598Z,9.49
2016-10-06T00:22:16.311Z,9.48
2016-10-06T00:22:38.037Z,9.56
2016-10-06T00:22:59.761Z,9.51
2016-10-06T00:23:21.480Z,9.47
2016-10-06T00:23:43.194Z,9.44
2016-10-06T00:24:04.908Z,9.39
2016-10-06T00:24:26.624Z,9.36
2016-10-06T00:24:48.333Z,9.40
2016-10-06T00:25:10.035Z,9.35
2016-10-06T00:25:31.752Z,9.30
2016-10-06T00:25:53.473Z,9.41
2016-10-06T00:26:15.175Z,9.35
2016-10-06T00:26:36.902Z,9.35
2016-10-06T00:26:58.646Z,9.37
2016-10-06T00:27:20.361Z,9.43
2016-10-06T00:27:42.074Z,9.53
2016-10-06T00:28:08.564Z,9.56
2016-10-06T00:28:30.284Z,9.59
2016-10-06T00:28:56.772Z,9.56
2016-10-06T00:29:18.483Z,9.49
2016-10-06T00:29:40.194Z,9.37
2016-10-06T00:30:01.939Z,9.34
2016-10-06T00:30:23.653Z,9.28
2016-10-06T00:30:45.392Z,9.38
2016-10-06T00:31:07.111Z,9.39
2016-10-06T00:31:28.826Z,9.45
2016-10-06T00:31:50.545Z,9.46
2016-10-06T00:32:12.267Z,9.56
2016-10-06T00:32:33.997Z,9.58
2016-10-06T00:32:55.721Z,9.51
2016-10-06T00:33:17.436Z,9.52
2016-10-06T00:33:39.170Z,9.41
2016-10-06T00:34:00.897Z,9.33
2016-10-06T00:34:22.608Z,9.36
2016-10-06T00:34:49.094Z,9.47
2016-10-06T00:35:10.878Z,9.48
2016-10-06T00:35:32.599Z,9.49
2016-10-06T00:35:54.323Z,9.42
2016-10-06T00:36:16.046Z,9.27
2016-10-06T00:36:37.762Z,9.26
2016-10-06T00:36:59.482Z,9.33
2016-10-06T00:37:21.200Z,9.44
2016-10-06T00:37:42.913Z,9.47
2016-10-06T00:38:04.633Z,9.41
2016-10-06T00:38:26.355Z,9.35
2016-10-06T00:38:48.071Z,9.33
2016-10-06T00:39:09.783Z,9.33
2016-10-06T00:39:31.501Z,9.26
2016-10-06T00:39:53.215Z,9.27
2016-10-06T00:40:14.959Z,9.28
2016-10-06T00:40:36.666Z,9.24
2016-10-06T00:40:58.383Z,9.17
2016-10-06T00:41:20.101Z,9.08
2016-10-06T00:41:41.816Z,9.01
2016-10-06T00:42:03.537Z,9.00
2016-10-06T00:42:25.254Z,8.93
2016-10-06T00:42:46.982Z,8.96
2016-10-06T00:43:08.701Z,9.04
2016-10-06T00:43:30.416Z,9.05
2016-10-06T00:43:52.134Z,8.99
2016-10-06T00:44:13.844Z,9.09
2016-10-06T00:44:35.578Z,9.25
2016-10-06T00:45:02.063Z,9.29
2016-10-06T00:45:23.783Z,9.32
2016-10-06T00:45:45.499Z,9.28
2016-10-06T00:46:07.214Z,9.25
2016-10-06T00:46:28.927Z,9.23
2016-10-06T00:46:50.667Z,9.19
2016-10-06T00:47:12.360Z,9.30
2016-10-06T00:47:34.079Z,9.29
2016-10-06T00:47:55.809Z,9.29
2016-10-06T00:48:17.507Z,9.29
2016-10-06T00:48:39.217Z,9.29
2016-10-06T00:49:00.939Z,9.28
2016-10-06T00:49:23.649Z,9.18
2016-10-06T00:49:45.366Z,9.07
2016-10-06T00:50:33.571Z,9.05
2016-10-06T00:50:55.286Z,9.02
2016-10-06T00:51:17.002Z,9.03
2016-10-06T00:51:39.714Z,9.04
2016-10-06T00:52:01.423Z,9.01
2016-10-06T00:52:23.136Z,8.96
2016-10-06T00:52:44.848Z,9.05
2016-10-06T00:53:06.561Z,9.14
2016-10-06T00:53:28.273Z,9.17
2016-10-06T00:53:49.989Z,9.18
2016-10-06T00:54:11.703Z,9.25
2016-10-06T00:54:33.415Z,9.27
2016-10-06T00:54:59.899Z,9.23
2016-10-06T00:55:21.629Z,9.31
2016-10-06T00:55:43.360Z,9.37
2016-10-06T00:56:05.069Z,9.38
2016-10-06T00:56:27.790Z,9.37
2016-10-06T00:56:49.510Z,9.30
2016-10-06T00:57:11.220Z,9.16
2016-10-06T00:57:37.709Z,9.07
2016-10-06T00:57:59.437Z,9.03
2016-10-06T00:58:21.142Z,9.03
2016-10-06T00:58:42.856Z,9.05
2016-10-06T00:59:04.570Z,9.04
2016-10-06T00:59:26.289Z,9.11
2016-10-06T00:59:48.005Z,9.18
2016-10-06T01:00:09.717Z,9.16
2016-10-06T01:00:36.205Z,9.21
2016-10-06T01:00:57.923Z,9.23
2016-10-06T01:01:19.631Z,9.23
2016-10-06T01:01:41.346Z,9.28
2016-10-06T01:02:05.702Z,9.28
2016-10-06T01:02:32.194Z,9.26
2016-10-06T01:02:53.908Z,9.26
2016-10-06T01:03:15.663Z,9.26
2016-10-06T01:03:37.369Z,9.30
2016-10-06T01:03:59.087Z,9.26
2016-10-06T01:04:20.800Z,9.30
2016-10-06T01:04:42.521Z,9.18
2016-10-06T01:05:04.240Z,9.19
2016-10-06T01:05:25.958Z,9.21
2016-10-06T01:05:47.666Z,9.19
2016-10-06T01:06:09.382Z,9.25
2016-10-06T01:06:31.097Z,9.27
2016-10-06T01:06:52.813Z,9.20
2016-10-06T01:07:14.527Z,9.29
2016-10-06T01:07:36.235Z,9.34
2016-10-06T01:07:57.952Z,9.36
2016-10-06T01:08:19.670Z,9.30
2016-10-06T01:08:41.378Z,9.26
2016-10-06T01:09:03.093Z,9.30
2016-10-06T01:09:24.807Z,9.28
2016-10-06T01:09:46.519Z,9.27
2016-10-06T01:10:08.259Z,9.41
2016-10-06T01:10:29.974Z,9.48
2016-10-06T01:10:51.685Z,9.43
2016-10-06T01:11:13.406Z,9.37
2016-10-06T01:11:35.126Z,9.34
2016-10-06T01:11:56.842Z,9.33
2016-10-06T01:12:23.326Z,9.21
2016-10-06T01:12:45.040Z,9.03
2016-10-06T01:13:06.752Z,9.07
2016-10-06T01:13:28.472Z,9.06
2016-10-06T01:13:50.185Z,9.07
2016-10-06T01:14:11.900Z,9.09
2016-10-06T01:14:33.613Z,9.16
2016-10-06T01:14:55.336Z,9.14
2016-10-06T01:15:17.045Z,9.03
2016-10-06T01:15:38.770Z,9.07
2016-10-06T01:16:00.486Z,9.19
2016-10-06T01:16:22.196Z,9.22
2016-10-06T01:16:48.687Z,9.30
2016-10-06T01:17:10.396Z,9.28
2016-10-06T01:17:36.891Z,9.43
2016-10-06T01:17:58.603Z,9.35
2016-10-06T01:18:20.368Z,9.30
2016-10-06T01:18:42.095Z,9.28
2016-10-06T01:19:03.814Z,9.10
2016-10-06T01:19:25.526Z,9.09
2016-10-06T01:19:47.241Z,9.12
2016-10-06T01:20:08.951Z,9.07
2016-10-06T01:20:30.669Z,9.03
2016-10-06T01:20:52.397Z,8.98
2016-10-06T01:21:14.116Z,8.96
2016-10-06T01:21:35.838Z,8.94
2016-10-06T01:21:57.547Z,8.90
2016-10-06T01:22:19.260Z,8.96
2016-10-06T01:22:45.744Z,8.94
2016-10-06T01:23:07.461Z,8.91
2016-10-06T01:23:29.172Z,8.91
2016-10-06T01:23:50.890Z,8.93
2016-10-06T01:24:12.610Z,9.01
2016-10-06T01:24:34.317Z,9.02
2016-10-06T01:24:56.033Z,8.99
2016-10-06T01:25:17.744Z,9.02
2016-10-06T01:25:39.454Z,8.99
2016-10-06T01:26:01.173Z,9.06
2016-10-06T01:26:27.656Z,9.20
2016-10-06T01:26:49.376Z,9.30
2016-10-06T01:27:11.092Z,9.37
2016-10-06T01:27:32.812Z,9.28
2016-10-06T01:27:54.520Z,9.29
2016-10-06T01:28:16.237Z,9.21
2016-10-06T01:28:37.946Z,9.17
2016-10-06T01:28:59.657Z,9.16
2016-10-06T01:29:21.370Z,9.21
2016-10-06T01:29:43.078Z,9.17
2016-10-06T01:30:04.804Z,9.17
2016-10-06T01:30:26.525Z,9.15
2016-10-06T01:30:48.236Z,9.04
2016-10-06T01:31:09.955Z,9.08
2016-10-06T01:31:31.683Z,9.07
2016-10-06T01:31:54.392Z,9.08
2016-10-06T01:32:16.125Z,9.11
2016-10-06T01:32:37.839Z,8.99
2016-10-06T01:32:59.550Z,8.93
2016-10-06T01:33:21.263Z,9.00
2016-10-06T01:33:42.970Z,9.09
2016-10-06T01:34:04.676Z,9.10
2016-10-06T01:34:26.463Z,9.11
2016-10-06T01:34:48.174Z,9.14
2016-10-06T01:35:09.895Z,9.14
2016-10-06T01:35:31.600Z,9.13
2016-10-06T01:35:53.323Z,9.17
2016-10-06T01:36:15.032Z,9.14
2016-10-06T01:36:36.748Z,9.15
2016-10-06T01:36:58.470Z,9.20
2016-10-06T01:37:24.955Z,9.23
2016-10-06T01:37:46.674Z,9.19
2016-10-06T01:38:08.383Z,9.25
2016-10-06T01:38:30.094Z,9.36
2016-10-06T01:38:51.805Z,9.39
2016-10-06T01:39:13.517Z,9.39
2016-10-06T01:39:35.228Z,9.45
2016-10-06T01:39:56.942Z,9.42
2016-10-06T01:40:18.657Z,9.40
2016-10-06T01:40:40.376Z,9.34
2016-10-06T01:41:02.098Z,9.36
2016-10-06T01:41:23.812Z,9.35
2016-10-06T01:41:45.528Z,9.32
2016-10-06T01:42:07.243Z,9.29
2016-10-06T01:42:29.147Z,9.26
2016-10-06T01:42:50.860Z,9.27
2016-10-06T01:43:12.581Z,9.17
2016-10-06T01:43:39.067Z,9.00
2016-10-06T01:44:00.790Z,8.88
2016-10-06T01:44:22.506Z,8.83
2016-10-06T01:44:44.223Z,8.87
2016-10-06T01:45:05.940Z,8.89
2016-10-06T01:45:27.656Z,8.94
2016-10-06T01:45:49.384Z,9.00
2016-10-06T01:46:11.086Z,9.03
2016-10-06T01:46:33.157Z,9.08
2016-10-06T01:47:21.367Z,9.06
2016-10-06T01:47:43.088Z,8.94
2016-10-06T01:48:04.791Z,8.96
2016-10-06T01:48:26.504Z,9.07
2016-10-06T01:48:48.217Z,9.09
2016-10-06T01:49:09.933Z,9.11
2016-10-06T01:49:31.642Z,9.13
2016-10-06T01:49:58.127Z,9.11
2016-10-06T01:50:19.843Z,9.09
2016-10-06T01:50:41.557Z,9.12
2016-10-06T01:51:03.275Z,9.14
2016-10-06T01:51:24.985Z,9.06
2016-10-06T01:51:46.701Z,9.02
2016-10-06T01:52:08.415Z,8.98
2016-10-06T01:52:30.128Z,8.98
2016-10-06T01:52:51.851Z,8.92
2016-10-06T01:53:13.565Z,8.99
2016-10-06T01:53:35.279Z,8.98
2016-10-06T01:53:56.989Z,8.88
2016-10-06T01:54:23.471Z,8.82
2016-10-06T01:54:45.193Z,8.83
2016-10-06T01:55:06.907Z,8.87
2016-10-06T01:55:28.632Z,8.92
2016-10-06T01:55:50.346Z,8.98
2016-10-06T01:56:16.823Z,9.07
2016-10-06T01:56:38.540Z,9.13
2016-10-06T01:57:00.248Z,9.23
2016-10-06T01:57:21.960Z,9.21
2016-10-06T01:57:43.678Z,9.12
2016-10-06T01:58:05.387Z,9.13
2016-10-06T01:58:27.106Z,9.14
2016-10-06T01:58:48.825Z,9.16
2016-10-06T01:59:10.540Z,9.13
2016-10-06T01:59:32.247Z,9.07
2016-10-06T01:59:53.966Z,9.01
2016-10-06T02:00:15.680Z,8.99
2016-10-06T02:00:37.386Z,8.95
2016-10-06T02:00:59.100Z,8.95
2016-10-06T02:01:20.841Z,8.91
2016-10-06T02:01:42.557Z,8.91
2016-10-06T02:02:04.269Z,8.94
2016-10-06T02:02:25.984Z,8.98
2016-10-06T02:02:47.701Z,9.03
2016-10-06T02:03:09.419Z,9.07
2016-10-06T02:03:31.138Z,9.08
2016-10-06T02:03:52.855Z,9.06
2016-10-06T02:04:14.564Z,9.04
2016-10-06T02:04:36.340Z,9.07
2016-10-06T02:04:58.061Z,9.12
2016-10-06T02:05:19.782Z,9.21
2016-10-06T02:05:42.488Z,9.22
2016-10-06T02:06:04.202Z,9.18
2016-10-06T02:06:25.921Z,9.06
2016-10-06T02:06:47.634Z,9.01
2016-10-06T02:07:09.344Z,8.89
2016-10-06T02:07:31.131Z,8.86
2016-10-06T02:07:57.623Z,8.88
2016-10-06T02:08:19.342Z,8.87
2016-10-06T02:08:41.055Z,8.94
2016-10-06T02:09:02.778Z,9.02
2016-10-06T02:09:24.499Z,9.07
2016-10-06T02:09:46.216Z,9.20
2016-10-06T02:10:07.925Z,9.21
2016-10-06T02:10:29.641Z,9.24
2016-10-06T02:10:56.132Z,9.21
2016-10-06T02:11:17.849Z,9.16
2016-10-06T02:11:39.566Z,9.16
2016-10-06T02:12:01.277Z,9.10
2016-10-06T02:12:23.001Z,9.10
2016-10-06T02:12:44.712Z,8.99
2016-10-06T02:13:06.421Z,8.92
2016-10-06T02:13:28.139Z,8.94
2016-10-06T02:13:54.633Z,8.96
2016-10-06T02:14:21.120Z,8.89
2016-10-06T02:14:42.832Z,8.86
2016-10-06T02:15:04.543Z,8.82
2016-10-06T02:15:26.258Z,8.88
2016-10-06T02:15:47.970Z,8.88
2016-10-06T02:16:36.170Z,8.77
2016-10-06T02:16:57.887Z,8.80
2016-10-06T02:17:19.603Z,8.95
2016-10-06T02:17:41.329Z,9.00
2016-10-06T02:18:03.037Z,9.05
2016-10-06T02:18:29.532Z,9.15
2016-10-06T02:18:51.255Z,9.17
2016-10-06T02:19:12.971Z,9.15
2016-10-06T02:19:34.686Z,9.14
2016-10-06T02:19:56.399Z,9.11
2016-10-06T02:20:18.114Z,9.08
2016-10-06T02:20:39.824Z,9.07
2016-10-06T02:21:01.534Z,9.10
2016-10-06T02:21:23.250Z,9.10
2016-10-06T02:21:44.968Z,9.07
2016-10-06T02:22:06.686Z,8.99
2016-10-06T02:22:28.494Z,8.97
2016-10-06T02:22:50.205Z,8.95
2016-10-06T02:23:11.925Z,8.95
2016-10-06T02:23:33.638Z,9.01
2016-10-06T02:23:55.355Z,9.05
2016-10-06T02:24:17.064Z,9.07
2016-10-06T02:24:38.782Z,9.12
2016-10-06T02:25:00.500Z,9.16
2016-10-06T02:25:22.213Z,9.19
2016-10-06T02:25:46.648Z,9.16
2016-10-06T02:26:08.361Z,9.16
2016-10-06T02:26:31.075Z,9.18
2016-10-06T02:26:52.783Z,9.19
2016-10-06T02:27:14.497Z,9.19
2016-10-06T02:27:40.977Z,9.22
2016-10-06T02:28:02.694Z,9.20
2016-10-06T02:28:24.406Z,9.14
2016-10-06T02:28:46.118Z,9.10
2016-10-06T02:29:07.835Z,9.13
2016-10-06T02:29:29.539Z,9.16
2016-10-06T02:29:51.254Z,9.15
2016-10-06T02:30:12.963Z,9.15
2016-10-06T02:30:34.667Z,9.08
2016-10-06T02:30:56.382Z,9.07
2016-10-06T02:31:22.876Z,9.10
2016-10-06T02:31:44.592Z,9.10
2016-10-06T02:32:06.301Z,9.17
2016-10-06T02:32:28.011Z,9.13
2016-10-06T02:32:49.724Z,9.10
2016-10-06T02:33:11.436Z,9.08
2016-10-06T02:33:33.142Z,9.05
2016-10-06T02:33:54.865Z,8.99
2016-10-06T02:34:16.578Z,8.90
2016-10-06T02:34:38.294Z,8.81
2016-10-06T02:35:00.017Z,8.81
2016-10-06T02:35:21.724Z,8.89
2016-10-06T02:35:43.435Z,8.89
2016-10-06T02:36:05.146Z,8.86
2016-10-06T02:36:26.852Z,8.90
2016-10-06T02:37:29.364Z,8.89
2016-10-06T02:37:51.074Z,8.89
2016-10-06T02:38:12.784Z,8.97
2016-10-06T02:38:34.502Z,9.07
2016-10-06T02:39:02.002Z,8.92
2016-10-06T02:39:23.719Z,8.78
2016-10-06T02:39:45.439Z,8.72
2016-10-06T02:40:07.151Z,8.82
2016-10-06T02:40:28.867Z,8.90
2016-10-06T02:40:50.581Z,8.89
2016-10-06T02:41:12.295Z,8.80
2016-10-06T02:41:34.012Z,8.72
2016-10-06T02:41:55.719Z,8.74
2016-10-06T02:42:17.434Z,8.73
2016-10-06T02:42:39.147Z,8.81
2016-10-06T02:43:00.866Z,8.86
2016-10-06T02:43:22.579Z,8.82
2016-10-06T02:43:49.069Z,8.87
2016-10-06T02:44:10.780Z,8.97
2016-10-06T02:44:32.497Z,8.98
2016-10-06T02:44:54.220Z,9.03
2016-10-06T02:45:15.931Z,9.01
2016-10-06T02:45:37.641Z,9.04
2016-10-06T02:45:59.363Z,9.02
2016-10-06T02:46:21.074Z,8.94
2016-10-06T02:46:42.782Z,8.95
2016-10-06T02:47:04.494Z,8.82
2016-10-06T02:47:26.208Z,8.79
2016-10-06T02:47:47.920Z,8.87
2016-10-06T02:48:09.637Z,8.89
2016-10-06T02:48:31.354Z,8.94
2016-10-06T02:48:53.064Z,8.97
2016-10-06T02:49:14.777Z,8.89
2016-10-06T02:49:36.484Z,8.76
2016-10-06T02:49:58.193Z,8.72
2016-10-06T02:50:19.932Z,8.80
2016-10-06T02:50:41.647Z,8.90
2016-10-06T02:51:03.357Z,8.82
2016-10-06T02:51:25.075Z,8.72
2016-10-06T02:51:46.796Z,8.65
2016-10-06T02:52:08.504Z,8.68
2016-10-06T02:52:30.206Z,8.61
2016-10-06T02:52:51.921Z,8.71
2016-10-06T02:53:13.635Z,8.74
2016-10-06T02:53:35.346Z,8.77
2016-10-06T02:53:57.056Z,8.77
2016-10-06T02:54:18.770Z,8.66
2016-10-06T02:54:40.482Z,8.52
2016-10-06T02:55:02.208Z,8.46
2016-10-06T02:55:23.926Z,8.46
2016-10-06T02:55:46.635Z,8.44
2016-10-06T02:56:17.895Z,8.33
2016-10-06T02:56:39.604Z,8.26
2016-10-06T02:57:01.318Z,8.24
2016-10-06T02:57:23.032Z,8.35
2016-10-06T02:57:44.740Z,8.55
2016-10-06T02:58:06.448Z,8.58
2016-10-06T02:58:28.157Z,8.54
2016-10-06T02:58:49.877Z,8.55
2016-10-06T02:59:11.595Z,8.59
2016-10-06T02:59:33.302Z,8.62
2016-10-06T02:59:55.014Z,8.64
2016-10-06T03:00:16.730Z,8.67
2016-10-06T03:00:38.441Z,8.63
2016-10-06T03:01:00.179Z,8.51
2016-10-06T03:01:21.899Z,8.45
2016-10-06T03:01:43.610Z,8.51
2016-10-06T03:02:05.330Z,8.55
2016-10-06T03:02:27.039Z,8.60
2016-10-06T03:02:53.520Z,8.61
2016-10-06T03:03:15.237Z,8.71
2016-10-06T03:03:36.954Z,8.81
2016-10-06T03:03:59.663Z,8.88
2016-10-06T03:04:21.376Z,8.88
2016-10-06T03:04:43.096Z,8.78
2016-10-06T03:05:04.808Z,8.65
2016-10-06T03:05:26.539Z,8.66
2016-10-06T03:05:48.258Z,8.77
2016-10-06T03:06:09.971Z,8.74
2016-10-06T03:06:31.692Z,8.76
2016-10-06T03:06:53.410Z,8.77
2016-10-06T03:07:15.127Z,8.78
2016-10-06T03:08:04.317Z,8.96
2016-10-06T03:08:26.033Z,8.89
2016-10-06T03:08:47.741Z,8.85
2016-10-06T03:09:09.445Z,8.73
2016-10-06T03:09:31.160Z,8.60
2016-10-06T03:09:52.887Z,8.62
2016-10-06T03:10:14.604Z,8.74
2016-10-06T03:10:36.316Z,8.78
2016-10-06T03:10:58.025Z,8.74
2016-10-06T03:11:19.741Z,8.79
2016-10-06T03:11:41.454Z,8.79
2016-10-06T03:12:03.184Z,8.84
2016-10-06T03:12:25.891Z,8.86
2016-10-06T03:12:47.605Z,8.76
2016-10-06T03:13:09.320Z,8.85
2016-10-06T03:13:31.051Z,8.92
2016-10-06T03:13:52.766Z,8.87
2016-10-06T03:14:14.496Z,8.80
2016-10-06T03:14:36.200Z,8.76
2016-10-06T03:14:57.915Z,8.77
2016-10-06T03:15:19.631Z,8.80
2016-10-06T03:15:41.338Z,8.79
2016-10-06T03:16:03.050Z,8.70
2016-10-06T03:16:24.757Z,8.63
2016-10-06T03:16:46.461Z,8.63
2016-10-06T03:17:08.177Z,8.65
2016-10-06T03:17:29.904Z,8.59
2016-10-06T03:17:51.614Z,8.64
2016-10-06T03:18:13.328Z,8.64
2016-10-06T03:18:35.043Z,8.67
2016-10-06T03:18:56.748Z,8.63
2016-10-06T03:19:18.472Z,8.63
2016-10-06T03:19:40.194Z,8.64
2016-10-06T03:20:01.900Z,8.69
2016-10-06T03:20:23.615Z,8.73
2016-10-06T03:20:45.323Z,8.86
2016-10-06T03:21:07.030Z,8.85
2016-10-06T03:21:28.749Z,8.83
2016-10-06T03:21:51.474Z,8.81
2016-10-06T03:22:13.199Z,8.73
2016-10-06T03:22:34.912Z,8.74
2016-10-06T03:22:56.625Z,8.80
2016-10-06T03:23:18.339Z,8.79
2016-10-06T03:23:40.064Z,8.78
2016-10-06T03:24:01.775Z,8.72
2016-10-06T03:24:23.493Z,8.79
2016-10-06T03:24:45.201Z,8.86
2016-10-06T03:25:06.919Z,8.82
2016-10-06T03:25:28.631Z,8.80
2016-10-06T03:25:50.356Z,8.84
2016-10-06T03:26:12.068Z,8.81
2016-10-06T03:26:33.787Z,8.71
2016-10-06T03:26:55.504Z,8.74
2016-10-06T03:27:17.220Z,8.87
2016-10-06T03:27:38.941Z,8.93
2016-10-06T03:28:00.655Z,8.93
2016-10-06T03:28:22.364Z,8.89
2016-10-06T03:28:44.074Z,8.82
2016-10-06T03:29:05.786Z,8.82
2016-10-06T03:29:27.499Z,8.73
2016-10-06T03:29:52.019Z,8.70
2016-10-06T03:30:13.739Z,8.73
2016-10-06T03:30:35.462Z,8.69
2016-10-06T03:30:57.184Z,8.68
2016-10-06T03:31:18.890Z,8.72
2016-10-06T03:31:40.598Z,8.76
2016-10-06T03:32:02.310Z,8.70
2016-10-06T03:32:24.029Z,8.63
2016-10-06T03:32:45.740Z,8.68
2016-10-06T03:33:07.460Z,8.75
2016-10-06T03:33:29.169Z,8.85
2016-10-06T03:33:50.880Z,8.91
2016-10-06T03:34:12.598Z,8.97
2016-10-06T03:34:34.310Z,8.95
2016-10-06T03:34:56.022Z,8.91
2016-10-06T03:35:27.283Z,8.90
2016-10-06T03:35:49.016Z,8.92
2016-10-06T03:36:10.725Z,8.89
2016-10-06T03:36:33.442Z,8.87
2016-10-06T03:36:55.152Z,8.79
2016-10-06T03:37:16.861Z,8.82
2016-10-06T03:37:38.580Z,8.86
2016-10-06T03:38:00.294Z,8.94
2016-10-06T03:38:22.026Z,9.03
2016-10-06T03:38:43.717Z,9.02
2016-10-06T03:39:05.432Z,8.94
2016-10-06T03:39:27.149Z,8.91
2016-10-06T03:39:48.873Z,8.89
2016-10-06T03:40:10.580Z,8.83
2016-10-06T03:40:32.287Z,8.77
2016-10-06T03:40:53.998Z,8.73
2016-10-06T03:41:15.710Z,8.77
2016-10-06T03:41:37.425Z,8.77
2016-10-06T03:41:59.149Z,8.73
2016-10-06T03:42:20.860Z,8.74
2016-10-06T03:42:42.574Z,8.73
2016-10-06T03:43:04.289Z,8.61
2016-10-06T03:43:26.000Z,8.59
2016-10-06T03:43:47.713Z,8.56
2016-10-06T03:44:09.422Z,8.56
2016-10-06T03:44:31.138Z,8.64
2016-10-06T03:44:52.851Z,8.74
2016-10-06T03:45:14.566Z,8.84
2016-10-06T03:45:36.280Z,8.88
2016-10-06T03:45:57.993Z,8.93
2016-10-06T03:46:19.707Z,8.89
2016-10-06T03:46:41.426Z,8.88
2016-10-06T03:47:03.147Z,8.76
2016-10-06T03:47:24.875Z,8.65
2016-10-06T03:47:46.593Z,8.70
2016-10-06T03:48:10.310Z,8.74
2016-10-06T03:48:32.020Z,8.69
2016-10-06T03:48:53.741Z,8.62
2016-10-06T03:49:15.452Z,8.66
2016-10-06T03:49:37.166Z,8.72
2016-10-06T03:49:58.871Z,8.63
2016-10-06T03:50:20.584Z,8.70
2016-10-06T03:50:42.305Z,8.83
2016-10-06T03:51:04.013Z,8.80
2016-10-06T03:51:25.737Z,8.74
2016-10-06T03:51:47.457Z,8.71
2016-10-06T03:52:09.175Z,8.66
2016-10-06T03:52:30.887Z,8.62
2016-10-06T03:52:52.608Z,8.58
2016-10-06T03:53:14.326Z,8.58
2016-10-06T03:53:36.042Z,8.54
2016-10-06T03:53:57.760Z,8.64
2016-10-06T03:54:19.469Z,8.64
2016-10-06T03:54:41.192Z,8.61
2016-10-06T03:55:02.908Z,8.63
2016-10-06T03:55:24.631Z,8.61
2016-10-06T03:55:46.349Z,8.59
2016-10-06T03:56:08.062Z,8.57
2016-10-06T03:56:29.770Z,8.59
2016-10-06T03:56:51.489Z,8.69
2016-10-06T03:57:13.213Z,8.79
2016-10-06T03:57:34.940Z,8.81
2016-10-06T03:57:56.660Z,8.76
2016-10-06T03:58:18.381Z,8.76
2016-10-06T03:58:40.100Z,8.78
2016-10-06T03:59:01.808Z,8.77
2016-10-06T03:59:23.523Z,8.70
2016-10-06T04:00:11.723Z,8.63
2016-10-06T04:00:33.436Z,8.65
2016-10-06T04:00:55.151Z,8.68
2016-10-06T04:01:16.860Z,8.62
2016-10-06T04:01:38.569Z,8.56
2016-10-06T04:02:00.296Z,8.59
2016-10-06T04:02:22.004Z,8.70
2016-10-06T04:02:43.727Z,8.79
2016-10-06T04:03:05.443Z,8.73
2016-10-06T04:03:27.156Z,8.77
2016-10-06T04:03:48.875Z,8.71
2016-10-06T04:04:10.595Z,8.63
2016-10-06T04:04:32.315Z,8.69
2016-10-06T04:04:54.031Z,8.74
2016-10-06T04:05:15.738Z,8.83
2016-10-06T04:05:37.454Z,8.92
2016-10-06T04:05:59.172Z,8.92
2016-10-06T04:06:20.876Z,8.90
2016-10-06T04:06:42.614Z,8.78
2016-10-06T04:07:04.330Z,8.73
2016-10-06T04:07:26.038Z,8.77
2016-10-06T04:07:47.755Z,8.73
2016-10-06T04:08:09.492Z,8.78
2016-10-06T04:08:31.207Z,8.79
2016-10-06T04:08:52.923Z,8.82
2016-10-06T04:09:14.645Z,8.88
2016-10-06T04:09:36.367Z,8.91
2016-10-06T04:09:58.087Z,8.92
2016-10-06T04:10:19.799Z,8.85
2016-10-06T04:10:41.513Z,8.87
2016-10-06T04:11:03.221Z,8.79
2016-10-06T04:11:24.934Z,8.77
2016-10-06T04:11:46.668Z,8.77
2016-10-06T04:12:08.382Z,8.73
2016-10-06T04:12:30.096Z,8.77
2016-10-06T04:12:51.828Z,8.84
2016-10-06T04:13:13.549Z,8.90
2016-10-06T04:13:35.252Z,8.98
2016-10-06T04:13:56.972Z,9.00
2016-10-06T04:14:18.681Z,8.95
2016-10-06T04:14:40.392Z,8.94
2016-10-06T04:15:02.104Z,8.88
2016-10-06T04:15:23.828Z,8.85
2016-10-06T04:15:45.537Z,8.89
2016-10-06T04:16:07.247Z,8.91
2016-10-06T04:16:28.958Z,8.92
2016-10-06T04:16:50.670Z,8.91
2016-10-06T04:17:12.394Z,8.88
2016-10-06T04:17:34.099Z,8.97
2016-10-06T04:17:55.812Z,8.94
2016-10-06T04:18:17.530Z,8.92
2016-10-06T04:18:39.244Z,8.87
2016-10-06T04:19:00.964Z,8.88
2016-10-06T04:19:22.762Z,8.85
2016-10-06T04:19:44.481Z,8.88
2016-10-06T04:20:06.189Z,8.84
2016-10-06T04:20:27.908Z,8.88
2016-10-06T04:20:49.628Z,8.94
2016-10-06T04:21:11.341Z,8.95
2016-10-06T04:21:33.089Z,8.92
2016-10-06T04:21:54.784Z,8.97
2016-10-06T04:22:16.502Z,8.99
2016-10-06T04:22:38.214Z,8.93
2016-10-06T04:22:59.924Z,8.85
2016-10-06T04:23:21.644Z,8.86
2016-10-06T04:23:43.362Z,8.82
2016-10-06T04:24:05.080Z,8.83
2016-10-06T04:24:26.790Z,8.87
2016-10-06T04:24:48.513Z,8.91
2016-10-06T04:25:10.250Z,8.89
2016-10-06T04:25:31.986Z,8.90
2016-10-06T04:25:53.706Z,8.88
2016-10-06T04:26:15.421Z,8.89
2016-10-06T04:26:37.147Z,8.96
2016-10-06T04:26:58.866Z,9.00
2016-10-06T04:27:20.594Z,9.02
2016-10-06T04:27:42.327Z,9.07
2016-10-06T04:28:04.039Z,9.13
2016-10-06T04:28:28.316Z,9.17
2016-10-06T04:28:54.803Z,9.18
2016-10-06T04:29:16.518Z,9.17
2016-10-06T04:29:39.239Z,9.17
2016-10-06T04:30:00.985Z,9.20
2016-10-06T04:30:22.701Z,9.22
2016-10-06T04:30:44.426Z,9.26
2016-10-06T04:31:06.139Z,9.25
2016-10-06T04:31:27.848Z,9.24
2016-10-06T04:31:49.566Z,9.21
2016-10-06T04:32:11.272Z,9.08
2016-10-06T04:32:32.989Z,9.06
2016-10-06T04:32:54.709Z,9.08
2016-10-06T04:33:16.431Z,9.02
2016-10-06T04:33:38.150Z,8.94
2016-10-06T04:33:59.867Z,8.90
2016-10-06T04:34:21.589Z,8.85
2016-10-06T04:34:43.303Z,8.83
2016-10-06T04:35:05.020Z,8.86
2016-10-06T04:35:26.731Z,8.93
2016-10-06T04:35:48.441Z,8.98
2016-10-06T04:36:10.155Z,9.07
2016-10-06T04:36:31.875Z,9.09
2016-10-06T04:36:53.601Z,9.15
2016-10-06T04:37:15.309Z,9.13
2016-10-06T04:37:37.027Z,9.16
2016-10-06T04:37:58.741Z,9.25
2016-10-06T04:38:20.477Z,9.24
2016-10-06T04:38:42.185Z,9.25
2016-10-06T04:39:03.917Z,9.25
2016-10-06T04:39:25.656Z,9.16
2016-10-06T04:39:47.363Z,9.09
2016-10-06T04:40:09.084Z,9.18
2016-10-06T04:40:30.813Z,9.21
2016-10-06T04:40:52.543Z,9.24
2016-10-06T04:41:14.267Z,9.21
2016-10-06T04:41:35.987Z,9.11
2016-10-06T04:41:57.696Z,9.07
2016-10-06T04:42:19.433Z,9.06
2016-10-06T04:42:41.158Z,8.95
2016-10-06T04:43:02.871Z,8.92
2016-10-06T04:43:24.598Z,9.00
2016-10-06T04:43:46.342Z,9.07
2016-10-06T04:44:08.049Z,9.19
2016-10-06T04:44:29.762Z,9.24
2016-10-06T04:44:51.520Z,9.20
2016-10-06T04:45:13.235Z,9.22
2016-10-06T04:45:34.960Z,9.17
2016-10-06T04:45:56.677Z,9.06
2016-10-06T04:46:18.404Z,9.03
2016-10-06T04:46:40.124Z,9.04
2016-10-06T04:47:01.840Z,9.09
2016-10-06T04:47:23.553Z,9.09
2016-10-06T04:47:45.271Z,9.04
2016-10-06T04:48:07.003Z,8.98
2016-10-06T04:48:28.723Z,9.03
2016-10-06T04:48:50.442Z,9.08
2016-10-06T04:49:12.158Z,9.14
2016-10-06T04:49:33.880Z,9.08
2016-10-06T04:49:55.599Z,9.06
2016-10-06T04:50:17.306Z,9.07
2016-10-06T04:50:39.033Z,8.98
2016-10-06T04:51:00.743Z,9.01
2016-10-06T04:51:22.459Z,8.97
2016-10-06T04:51:44.200Z,9.02
2016-10-06T04:52:05.918Z,9.03
2016-10-06T04:52:27.632Z,9.06
2016-10-06T04:52:49.340Z,9.10
2016-10-06T04:53:11.054Z,9.09
2016-10-06T04:53:32.766Z,9.09
2016-10-06T04:53:54.477Z,9.09
2016-10-06T04:54:16.194Z,9.10
2016-10-06T04:54:37.905Z,9.10
2016-10-06T04:54:59.623Z,9.10
2016-10-06T04:55:21.582Z,9.15
2016-10-06T04:55:43.300Z,9.19
2016-10-06T04:56:09.789Z,9.14